createdAt,value
2019-05-25T00:01:30.025Z,92.60
2019-05-25T00:11:27.649Z,93.00
2019-05-25T00:14:00.059Z,93.00
2019-05-25T00:16:37.024Z,93.20
2019-05-25T00:19:08.018Z,93.50
2019-05-25T00:21:47.861Z,93.80
2019-05-25T00:26:52.608Z,93.80
2019-05-25T00:29:37.797Z,93.50
2019-05-25T00:34:39.730Z,93.50
2019-05-25T00:39:41.183Z,93.30
2019-05-25T00:42:13.147Z,93.70
2019-05-25T00:44:42.376Z,94.00
2019-05-25T00:47:11.741Z,94.20
2019-05-25T00:49:40.936Z,93.20
2019-05-25T00:52:10.306Z,93.10
2019-05-25T00:54:44.577Z,93.00
2019-05-25T00:57:13.829Z,99.90
2019-05-25T00:59:42.957Z,92.80
2019-05-25T01:02:12.010Z,93.00
2019-05-25T01:07:13.082Z,92.70
2019-05-25T01:09:48.358Z,92.60
2019-05-25T01:12:21.218Z,92.70
2019-05-25T01:14:52.767Z,92.70
2019-05-25T01:17:22.274Z,92.70
2019-05-25T01:25:05.767Z,92.90
2019-05-25T01:27:40.564Z,93.10
2019-05-25T01:30:22.522Z,93.40
2019-05-25T01:32:51.980Z,93.30
2019-05-25T01:35:21.130Z,93.90
2019-05-25T01:37:50.580Z,93.00
2019-05-25T01:40:20.763Z,93.30
2019-05-25T01:42:49.955Z,93.60
2019-05-25T01:45:19.032Z,93.50
2019-05-25T01:52:52.704Z,93.30
2019-05-25T01:55:23.305Z,93.20
2019-05-25T01:57:55.340Z,93.50
2019-05-25T02:00:28.573Z,93.60
2019-05-25T02:03:03.306Z,93.90
2019-05-25T02:05:33.784Z,94.50
2019-05-25T02:08:05.321Z,95.10
2019-05-25T02:10:44.287Z,95.30
2019-05-25T02:13:14.871Z,95.30
2019-05-25T02:18:20.880Z,95.40
2019-05-25T02:23:20.944Z,95.90
2019-05-25T02:25:50.185Z,94.60
2019-05-25T02:28:21.339Z,95.00
2019-05-25T02:30:52.229Z,94.20
2019-05-25T02:33:24.235Z,94.00
2019-05-25T02:36:05.045Z,94.40
2019-05-25T02:38:34.150Z,94.10
2019-05-25T02:46:19.704Z,93.90
2019-05-25T02:49:02.213Z,93.90
2019-05-25T02:51:34.085Z,93.90
2019-05-25T02:54:07.409Z,93.90
2019-05-25T02:56:36.746Z,93.20
2019-05-25T02:59:09.914Z,93.40
2019-05-25T03:01:39.306Z,93.60
2019-05-25T03:06:46.554Z,93.80
2019-05-25T03:11:45.453Z,94.50
2019-05-25T03:14:32.133Z,94.70
2019-05-25T03:17:12.793Z,95.00
2019-05-25T03:19:42.201Z,95.10
2019-05-25T03:22:11.110Z,95.00
2019-05-25T03:24:39.952Z,95.10
2019-05-25T03:27:08.694Z,95.40
2019-05-25T03:29:37.745Z,95.00
2019-05-25T03:32:06.878Z,94.50
2019-05-25T03:34:36.222Z,94.50
2019-05-25T03:42:02.181Z,94.80
2019-05-25T03:44:31.156Z,95.00
2019-05-25T03:49:32.638Z,95.20
2019-05-25T03:52:04.292Z,95.10
2019-05-25T04:02:13.274Z,95.50
2019-05-25T04:07:11.336Z,97.00
2019-05-25T04:09:42.242Z,96.50
2019-05-25T04:12:11.772Z,96.20
2019-05-25T04:14:40.938Z,95.90
2019-05-25T04:17:10.138Z,95.40
2019-05-25T04:19:39.531Z,95.60
2019-05-25T04:24:37.474Z,95.40
2019-05-25T04:27:06.624Z,95.40
2019-05-25T04:29:35.692Z,95.50
2019-05-25T04:32:04.913Z,95.60
2019-05-25T04:34:37.526Z,96.40
2019-05-25T04:37:06.998Z,95.90
2019-05-25T04:39:36.275Z,96.00
2019-05-25T04:42:13.054Z,96.00
2019-05-25T04:44:43.498Z,96.10
2019-05-25T04:49:43.191Z,96.60
2019-05-25T04:52:15.046Z,96.90
2019-05-25T04:57:42.266Z,97.20
2019-05-25T05:00:14.499Z,97.40
2019-05-25T05:02:59.215Z,97.50
2019-05-25T05:05:31.706Z,97.90
2019-05-25T05:08:05.620Z,97.90
2019-05-25T05:13:09.708Z,97.60
2019-05-25T05:18:19.276Z,95.80
2019-05-25T05:20:48.578Z,94.60
2019-05-25T05:23:25.101Z,94.20
2019-05-25T05:28:33.290Z,91.90
2019-05-25T05:31:22.780Z,91.40
2019-05-25T05:33:40.400Z,91.00
2019-05-25T05:36:13.777Z,90.60
2019-05-25T05:38:51.061Z,86.30
2019-05-25T05:41:24.930Z,81.50
2019-05-25T05:46:27.852Z,80.80
2019-05-25T05:48:59.363Z,81.10
2019-05-25T05:51:32.875Z,76.90
2019-05-25T05:54:05.919Z,78.60
2019-05-25T05:59:08.492Z,73.80
2019-05-25T06:01:37.975Z,74.70
2019-05-25T06:04:07.223Z,70.70
2019-05-25T06:09:08.812Z,69.10
2019-05-25T06:11:45.621Z,68.60
2019-05-25T06:14:15.345Z,69.10
2019-05-25T06:16:44.692Z,70.80
2019-05-25T06:19:14.024Z,72.40
2019-05-25T06:21:43.949Z,71.90
2019-05-25T06:24:13.304Z,71.50
2019-05-25T06:26:50.453Z,70.00
2019-05-25T06:36:56.818Z,69.80
2019-05-25T06:39:26.015Z,70.50
2019-05-25T06:41:56.595Z,70.90
2019-05-25T06:44:29.781Z,67.00
2019-05-25T06:47:07.276Z,64.20
2019-05-25T06:49:46.693Z,63.40
2019-05-25T06:52:19.128Z,61.50
2019-05-25T06:55:11.465Z,62.40
2019-05-25T06:57:48.329Z,61.60
2019-05-25T07:10:53.849Z,58.50
2019-05-25T07:13:30.803Z,58.80
2019-05-25T07:18:38.752Z,58.40
2019-05-25T07:21:08.344Z,57.60
2019-05-25T07:23:37.423Z,57.20
2019-05-25T07:26:06.608Z,55.90
2019-05-25T07:33:54.767Z,53.00
2019-05-25T07:36:24.534Z,51.80
2019-05-25T07:38:53.821Z,51.90
2019-05-25T07:41:23.187Z,50.70
2019-05-25T07:43:52.502Z,50.20
2019-05-25T07:46:37.555Z,50.40
2019-05-25T07:51:29.296Z,50.30
2019-05-25T07:54:04.777Z,50.70
2019-05-25T07:59:06.958Z,48.70
2019-05-25T08:01:35.727Z,48.40
2019-05-25T08:04:04.867Z,48.70
2019-05-25T08:06:33.875Z,49.30
2019-05-25T08:09:08.189Z,49.30
2019-05-25T08:11:37.129Z,49.30
2019-05-25T08:14:09.417Z,48.50
2019-05-25T08:19:23.867Z,48.10
2019-05-25T08:27:07.174Z,47.60
2019-05-25T08:29:38.949Z,48.30
2019-05-25T08:32:08.359Z,49.70
2019-05-25T08:34:38.124Z,51.30
2019-05-25T08:37:15.756Z,49.60
2019-05-25T08:39:45.258Z,49.40
2019-05-25T08:45:21.885Z,50.80
2019-05-25T08:47:51.509Z,49.70
2019-05-25T08:50:37.210Z,49.20
2019-05-25T08:58:13.045Z,46.20
2019-05-25T09:03:26.413Z,46.80
2019-05-25T09:05:55.480Z,46.80
2019-05-25T09:11:29.708Z,44.70
2019-05-25T09:14:28.905Z,43.90
2019-05-25T09:19:27.862Z,43.40
2019-05-25T09:24:43.717Z,46.70
2019-05-25T09:27:11.946Z,43.90
2019-05-25T09:32:16.512Z,45.00
2019-05-25T09:34:46.288Z,43.50
2019-05-25T09:39:45.172Z,42.90
2019-05-25T09:44:56.757Z,44.10
2019-05-25T09:50:17.565Z,44.40
2019-05-25T09:55:46.230Z,44.00
2019-05-25T09:58:23.617Z,44.40
2019-05-25T10:00:53.021Z,46.70
2019-05-25T10:05:53.694Z,45.80
2019-05-25T10:08:25.613Z,42.90
2019-05-25T10:11:04.028Z,42.80
2019-05-25T10:18:56.554Z,42.00
2019-05-25T10:27:03.940Z,42.40
2019-05-25T10:29:37.113Z,45.10
2019-05-25T10:32:06.305Z,42.70
2019-05-25T10:34:52.569Z,45.10
2019-05-25T10:37:26.448Z,44.40
2019-05-25T10:42:37.622Z,43.00
2019-05-25T10:48:02.201Z,41.90
2019-05-25T10:50:32.119Z,43.10
2019-05-25T10:53:01.778Z,45.10
2019-05-25T10:55:31.371Z,43.60
2019-05-25T10:58:03.744Z,43.60
2019-05-25T11:00:41.034Z,43.30
2019-05-25T11:03:48.980Z,42.80
2019-05-25T11:06:18.478Z,43.30
2019-05-25T11:08:55.617Z,42.60
2019-05-25T11:19:07.673Z,41.30
2019-05-25T11:24:09.414Z,39.80
2019-05-25T11:26:46.513Z,40.60
2019-05-25T11:29:15.755Z,41.20
2019-05-25T11:31:55.759Z,40.40
2019-05-25T11:34:25.020Z,40.30
2019-05-25T11:36:54.580Z,40.70
2019-05-25T11:39:23.876Z,40.50
2019-05-25T11:44:26.358Z,38.80
2019-05-25T11:47:16.460Z,38.70
2019-05-25T11:49:47.657Z,40.20
2019-05-25T11:52:53.417Z,40.50
2019-05-25T11:55:23.100Z,39.30
2019-05-25T11:58:04.426Z,39.40
2019-05-25T12:00:33.932Z,40.70
2019-05-25T12:03:03.286Z,41.90
2019-05-25T12:05:40.027Z,42.50
2019-05-25T12:10:49.953Z,40.00
2019-05-25T12:23:56.328Z,40.70
2019-05-25T12:26:25.537Z,40.40
2019-05-25T12:28:54.796Z,40.30
2019-05-25T12:33:59.190Z,41.80
2019-05-25T12:49:50.580Z,40.90
2019-05-25T12:52:24.259Z,40.70
2019-05-25T12:57:34.869Z,42.20
2019-05-25T13:00:19.269Z,41.70
2019-05-25T13:05:33.737Z,40.70
2019-05-25T13:07:59.525Z,41.50
2019-05-25T13:10:37.917Z,41.10
2019-05-25T13:15:40.994Z,40.10
2019-05-25T13:18:14.845Z,41.40
2019-05-25T13:20:46.839Z,42.00
2019-05-25T13:25:46.686Z,42.30
2019-05-25T13:28:40.333Z,44.70
2019-05-25T13:36:35.725Z,49.40
2019-05-25T13:39:16.069Z,50.30
2019-05-25T13:41:48.633Z,51.10
2019-05-25T13:44:17.861Z,51.80
2019-05-25T13:49:21.916Z,52.50
2019-05-25T13:51:51.422Z,53.60
2019-05-25T14:04:29.352Z,54.50
2019-05-25T14:06:58.850Z,55.60
2019-05-25T14:09:28.721Z,56.20
2019-05-25T14:11:58.161Z,56.40
2019-05-25T14:14:27.389Z,57.30
2019-05-25T14:17:00.009Z,57.20
2019-05-25T14:21:57.908Z,56.00
2019-05-25T14:24:27.110Z,55.60
2019-05-25T14:26:56.299Z,55.50
2019-05-25T14:29:26.339Z,56.30
2019-05-25T14:31:55.710Z,56.90
2019-05-25T14:34:25.087Z,57.10
2019-05-25T14:36:58.177Z,56.50
2019-05-25T14:49:50.162Z,56.10
2019-05-25T14:52:19.041Z,56.70
2019-05-25T14:54:48.073Z,57.20
2019-05-25T14:57:17.012Z,56.60
2019-05-25T14:59:56.745Z,56.20
2019-05-25T15:02:26.304Z,55.60
2019-05-25T15:04:55.967Z,54.90
2019-05-25T15:07:25.441Z,55.20
2019-05-25T15:12:23.868Z,55.60
2019-05-25T15:14:53.739Z,55.50
2019-05-25T15:17:22.990Z,56.80
2019-05-25T15:19:54.760Z,56.60
2019-05-25T15:22:24.213Z,57.10
2019-05-25T15:27:25.924Z,60.00
2019-05-25T15:37:34.431Z,65.50
2019-05-25T15:40:13.114Z,65.70
2019-05-25T15:42:42.626Z,66.50
2019-05-25T15:47:41.001Z,64.30
2019-05-25T15:50:10.728Z,65.00
2019-05-25T15:52:40.186Z,63.30
2019-05-25T15:55:18.718Z,61.90
2019-05-25T15:57:55.865Z,62.40
2019-05-25T16:03:05.489Z,63.10
2019-05-25T16:05:35.910Z,63.40
2019-05-25T16:08:13.049Z,63.90
2019-05-25T16:10:42.629Z,63.20
2019-05-25T16:13:11.814Z,63.00
2019-05-25T16:15:43.431Z,63.00
2019-05-25T16:18:12.809Z,62.00
2019-05-25T16:20:43.770Z,61.50
2019-05-25T16:28:35.668Z,62.80
2019-05-25T16:31:07.977Z,63.10
2019-05-25T16:33:36.685Z,63.70
2019-05-25T16:36:07.569Z,64.60
2019-05-25T16:38:37.032Z,64.90
2019-05-25T16:41:05.969Z,64.60
2019-05-25T16:43:35.583Z,64.70
2019-05-25T16:46:04.722Z,65.10
2019-05-25T16:48:33.865Z,65.70
2019-05-25T16:53:32.086Z,65.70
2019-05-25T16:56:01.298Z,66.10
2019-05-25T16:58:38.073Z,65.80
2019-05-25T17:01:07.583Z,65.70
2019-05-25T17:03:38.221Z,66.10
2019-05-25T17:06:09.315Z,66.40
2019-05-25T17:08:38.126Z,67.30
2019-05-25T17:11:06.831Z,66.70
2019-05-25T17:18:46.072Z,66.80
2019-05-25T17:21:16.869Z,66.60
2019-05-25T17:23:45.960Z,67.00
2019-05-25T17:28:49.802Z,68.70
2019-05-25T17:31:18.647Z,69.50
2019-05-25T17:33:50.953Z,70.50
2019-05-25T17:41:37.576Z,75.80
2019-05-25T17:44:18.549Z,78.70
2019-05-25T17:46:51.507Z,81.50
2019-05-25T17:49:24.071Z,82.50
2019-05-25T17:51:57.339Z,85.90
2019-05-25T17:54:41.364Z,86.20
2019-05-25T17:57:10.737Z,86.90
2019-05-25T17:59:45.632Z,87.60
2019-05-25T18:02:24.660Z,88.00
2019-05-25T18:04:53.601Z,89.90
2019-05-25T18:07:24.555Z,89.90
2019-05-25T18:15:41.313Z,91.10
2019-05-25T18:21:04.283Z,92.30
2019-05-25T18:23:42.550Z,92.90
2019-05-25T18:27:04.760Z,93.20
2019-05-25T18:33:03.381Z,95.80
2019-05-25T18:35:54.624Z,95.60
2019-05-25T18:38:39.667Z,95.50
2019-05-25T18:41:37.549Z,96.70
2019-05-25T18:44:35.301Z,96.80
2019-05-25T18:47:23.886Z,97.10
2019-05-25T18:50:34.722Z,97.30
2019-05-25T18:53:33.129Z,97.60
2019-05-25T18:56:13.949Z,98.60
2019-05-25T18:58:51.388Z,99.20
2019-05-25T19:01:45.420Z,99.50
2019-05-25T19:04:59.653Z,99.90
2019-05-25T19:07:39.127Z,99.90
2019-05-25T19:10:28.086Z,99.90
2019-05-25T19:13:07.242Z,99.90
2019-05-25T19:15:57.836Z,99.90
2019-05-25T19:19:33.428Z,99.90
2019-05-25T19:22:23.281Z,99.90
2019-05-25T19:24:56.968Z,99.90
2019-05-25T19:27:35.387Z,99.90
2019-05-25T19:33:11.351Z,99.90
2019-05-25T19:38:30.242Z,99.90
2019-05-25T19:41:15.941Z,99.90
2019-05-25T19:47:13.916Z,99.90
2019-05-25T19:50:04.895Z,99.90
2019-05-25T19:55:59.547Z,99.90
2019-05-25T19:58:35.453Z,99.90
2019-05-25T20:01:04.786Z,99.90
2019-05-25T20:03:34.008Z,99.90
2019-05-25T20:11:02.330Z,99.90
2019-05-25T20:13:31.500Z,99.90
2019-05-25T20:16:03.501Z,99.90
2019-05-25T20:18:43.726Z,99.90
2019-05-25T20:21:12.807Z,99.90
2019-05-25T20:23:42.256Z,99.90
2019-05-25T20:26:11.680Z,99.90
2019-05-25T20:28:50.551Z,99.90
2019-05-25T20:33:47.197Z,99.90
2019-05-25T20:36:17.924Z,99.90
2019-05-25T20:38:47.405Z,99.90
2019-05-25T20:41:16.972Z,99.90
2019-05-25T20:43:46.397Z,99.90
2019-05-25T20:46:15.823Z,99.90
2019-05-25T20:48:45.671Z,99.90
2019-05-25T20:51:15.053Z,99.90
2019-05-25T20:56:14.258Z,99.90
2019-05-25T20:58:43.706Z,99.90
2019-05-25T21:01:13.485Z,99.90
2019-05-25T21:04:01.775Z,99.90
2019-05-25T21:06:31.413Z,99.90
2019-05-25T21:09:00.821Z,99.90
2019-05-25T21:11:30.201Z,99.90
2019-05-25T21:13:59.791Z,99.90
2019-05-25T21:16:29.025Z,99.90
2019-05-25T21:21:26.520Z,99.90
2019-05-25T21:23:55.374Z,99.90
2019-05-25T21:26:24.751Z,99.90
2019-05-25T21:28:54.075Z,99.90
2019-05-25T21:31:24.054Z,99.90
2019-05-25T21:33:53.626Z,99.90
2019-05-25T21:36:22.985Z,99.90
2019-05-25T21:38:52.642Z,99.90
2019-05-25T21:43:52.978Z,99.90
2019-05-25T21:46:22.082Z,99.90
2019-05-25T21:48:54.244Z,99.90
2019-05-25T21:51:26.556Z,99.90
2019-05-25T21:53:59.604Z,99.90
2019-05-25T21:56:29.373Z,99.90
2019-05-25T21:58:58.885Z,99.90
2019-05-25T22:01:29.130Z,99.90
2019-05-25T22:06:28.006Z,99.90
2019-05-25T22:08:57.575Z,99.90
2019-05-25T22:11:30.663Z,99.90
2019-05-25T22:14:00.399Z,99.90
2019-05-25T22:16:31.331Z,99.90
2019-05-25T22:19:01.053Z,99.90
2019-05-25T22:21:33.685Z,99.90
2019-05-25T22:24:04.883Z,99.90
2019-05-25T22:29:04.643Z,99.90
2019-05-25T22:31:34.093Z,99.90
2019-05-25T22:34:03.669Z,99.90
2019-05-25T22:36:40.296Z,99.90
2019-05-25T22:39:04.483Z,99.90
2019-05-25T22:41:34.270Z,99.90
2019-05-25T22:44:06.168Z,99.90
2019-05-25T22:46:35.629Z,99.90
2019-05-25T22:51:33.837Z,99.90
2019-05-25T22:54:04.483Z,99.90
2019-05-25T22:56:34.040Z,99.90
2019-05-25T22:59:03.591Z,99.90
2019-05-25T23:01:36.425Z,99.90
2019-05-25T23:04:05.672Z,99.90
2019-05-25T23:06:35.196Z,99.90
2019-05-25T23:09:05.353Z,99.90
2019-05-25T23:14:03.789Z,99.90
2019-05-25T23:16:36.588Z,99.90
2019-05-25T23:19:06.873Z,99.90
2019-05-25T23:21:38.128Z,99.90
2019-05-25T23:24:07.298Z,99.90
2019-05-25T23:26:36.611Z,99.90
2019-05-25T23:29:06.419Z,99.90
2019-05-25T23:31:38.173Z,99.90
2019-05-25T23:36:36.525Z,99.90
2019-05-25T23:39:06.853Z,99.90
2019-05-25T23:41:38.006Z,99.90
2019-05-25T23:44:07.543Z,99.90
2019-05-25T23:46:36.954Z,99.90
2019-05-25T23:49:09.149Z,99.90
2019-05-25T23:51:38.980Z,99.90
2019-05-25T23:54:08.264Z,99.90
2019-05-25T23:59:07.517Z,99.90
